sensor_id;sensor_type;location;lat;lon;timestamp;temperature;humidity
22065;DHT22;11197;53.110;8.468;2023-04-16T00:02:15;9.50;99.90
22065;DHT22;11197;53.110;8.468;2023-04-16T00:04:41;9.50;99.90
22065;DHT22;11197;53.110;8.468;2023-04-16T00:07:07;9.50;99.90
22065;DHT22;11197;53.110;8.468;2023-04-16T00:09:32;9.50;99.90
22065;DHT22;11197;53.110;8.468;2023-04-16T00:11:58;9.40;99.90
22065;DHT22;11197;53.110;8.468;2023-04-16T00:14:25;9.40;99.90
22065;DHT22;11197;53.110;8.468;2023-04-16T00:16:50;9.40;99.90
22065;DHT22;11197;53.110;8.468;2023-04-16T00:19:16;9.40;99.90
22065;DHT22;11197;53.110;8.468;2023-04-16T00:21:42;9.40;99.90
22065;DHT22;11197;53.110;8.468;2023-04-16T00:24:08;9.40;99.90
22065;DHT22;11197;53.110;8.468;2023-04-16T00:26:34;9.40;99.90
22065;DHT22;11197;53.110;8.468;2023-04-16T00:29:00;9.30;99.90
22065;DHT22;11197;53.110;8.468;2023-04-16T00:31:30;9.30;99.90
22065;DHT22;11197;53.110;8.468;2023-04-16T00:33:57;9.30;99.90
22065;DHT22;11197;53.110;8.468;2023-04-16T00:36:24;9.30;99.90
22065;DHT22;11197;53.110;8.468;2023-04-16T00:38:51;9.30;99.90
22065;DHT22;11197;53.110;8.468;2023-04-16T00:41:18;9.30;99.90
22065;DHT22;11197;53.110;8.468;2023-04-16T00:43:44;9.30;99.90
22065;DHT22;11197;53.110;8.468;2023-04-16T00:46:10;9.30;99.90
22065;DHT22;11197;53.110;8.468;2023-04-16T00:48:38;9.30;99.90
22065;DHT22;11197;53.110;8.468;2023-04-16T00:51:06;9.30;99.90
22065;DHT22;11197;53.110;8.468;2023-04-16T00:53:32;9.30;99.90
22065;DHT22;11197;53.110;8.468;2023-04-16T00:56:04;9.20;99.90
22065;DHT22;11197;53.110;8.468;2023-04-16T00:58:34;9.20;99.90
22065;DHT22;11197;53.110;8.468;2023-04-16T01:01:01;9.20;99.90
22065;DHT22;11197;53.110;8.468;2023-04-16T01:03:57;9.20;99.90
22065;DHT22;11197;53.110;8.468;2023-04-16T01:06:23;9.10;99.90
22065;DHT22;11197;53.110;8.468;2023-04-16T01:08:49;9.10;99.90
22065;DHT22;11197;53.110;8.468;2023-04-16T01:11:15;9.10;99.90
22065;DHT22;11197;53.110;8.468;2023-04-16T01:13:41;9.10;99.90
22065;DHT22;11197;53.110;8.468;2023-04-16T01:16:08;9.10;99.90
22065;DHT22;11197;53.110;8.468;2023-04-16T01:18:35;9.10;99.90
22065;DHT22;11197;53.110;8.468;2023-04-16T01:21:02;9.10;99.90
22065;DHT22;11197;53.110;8.468;2023-04-16T01:23:28;9.10;99.90
22065;DHT22;11197;53.110;8.468;2023-04-16T01:25:54;9.10;99.90
22065;DHT22;11197;53.110;8.468;2023-04-16T01:28:21;9.10;99.90
22065;DHT22;11197;53.110;8.468;2023-04-16T01:30:46;9.10;99.90
22065;DHT22;11197;53.110;8.468;2023-04-16T01:33:21;9.10;99.90
22065;DHT22;11197;53.110;8.468;2023-04-16T01:35:47;9.10;99.90
22065;DHT22;11197;53.110;8.468;2023-04-16T01:38:14;9.10;99.90
22065;DHT22;11197;53.110;8.468;2023-04-16T01:40:40;9.10;99.90
22065;DHT22;11197;53.110;8.468;2023-04-16T01:43:06;9.10;99.90
22065;DHT22;11197;53.110;8.468;2023-04-16T01:45:33;9.00;99.90
22065;DHT22;11197;53.110;8.468;2023-04-16T01:47:59;9.00;99.90
22065;DHT22;11197;53.110;8.468;2023-04-16T01:50:26;9.00;99.90
22065;DHT22;11197;53.110;8.468;2023-04-16T01:52:51;9.00;99.90
22065;DHT22;11197;53.110;8.468;2023-04-16T01:55:17;9.00;99.90
22065;DHT22;11197;53.110;8.468;2023-04-16T01:57:43;9.00;99.90
22065;DHT22;11197;53.110;8.468;2023-04-16T02:00:10;9.00;99.90
22065;DHT22;11197;53.110;8.468;2023-04-16T02:02:44;9.00;99.90
22065;DHT22;11197;53.110;8.468;2023-04-16T02:05:12;9.00;99.90
22065;DHT22;11197;53.110;8.468;2023-04-16T02:07:38;9.00;99.90
22065;DHT22;11197;53.110;8.468;2023-04-16T02:10:04;8.90;99.90
22065;DHT22;11197;53.110;8.468;2023-04-16T02:12:31;8.90;99.90
22065;DHT22;11197;53.110;8.468;2023-04-16T02:14:58;8.90;99.90
22065;DHT22;11197;53.110;8.468;2023-04-16T02:17:26;8.90;99.90
22065;DHT22;11197;53.110;8.468;2023-04-16T02:20:04;8.90;99.90
22065;DHT22;11197;53.110;8.468;2023-04-16T02:22:34;8.90;99.90
22065;DHT22;11197;53.110;8.468;2023-04-16T02:25:00;8.80;99.90
22065;DHT22;11197;53.110;8.468;2023-04-16T02:27:26;8.80;99.90
22065;DHT22;11197;53.110;8.468;2023-04-16T02:29:57;8.80;99.90
22065;DHT22;11197;53.110;8.468;2023-04-16T02:32:23;8.80;99.90
22065;DHT22;11197;53.110;8.468;2023-04-16T02:34:50;8.80;99.90
22065;DHT22;11197;53.110;8.468;2023-04-16T02:37:15;8.80;99.90
22065;DHT22;11197;53.110;8.468;2023-04-16T02:39:41;8.80;99.90
22065;DHT22;11197;53.110;8.468;2023-04-16T02:42:08;8.80;99.90
22065;DHT22;11197;53.110;8.468;2023-04-16T02:44:35;8.80;99.90
22065;DHT22;11197;53.110;8.468;2023-04-16T02:47:01;8.70;99.90
22065;DHT22;11197;53.110;8.468;2023-04-16T02:49:26;8.80;99.90
22065;DHT22;11197;53.110;8.468;2023-04-16T02:51:52;8.70;99.90
22065;DHT22;11197;53.110;8.468;2023-04-16T02:54:18;8.70;99.90
22065;DHT22;11197;53.110;8.468;2023-04-16T02:56:44;8.80;99.90
22065;DHT22;11197;53.110;8.468;2023-04-16T02:59:11;8.80;99.90
22065;DHT22;11197;53.110;8.468;2023-04-16T03:01:37;8.80;99.90
22065;DHT22;11197;53.110;8.468;2023-04-16T03:04:03;8.80;99.90
22065;DHT22;11197;53.110;8.468;2023-04-16T03:06:29;8.80;99.90
22065;DHT22;11197;53.110;8.468;2023-04-16T03:08:55;8.80;99.90
22065;DHT22;11197;53.110;8.468;2023-04-16T03:11:21;8.80;99.90
22065;DHT22;11197;53.110;8.468;2023-04-16T03:13:48;8.80;99.90
22065;DHT22;11197;53.110;8.468;2023-04-16T03:16:14;8.80;99.90
22065;DHT22;11197;53.110;8.468;2023-04-16T03:18:40;8.80;99.90
22065;DHT22;11197;53.110;8.468;2023-04-16T03:21:05;8.80;99.90
22065;DHT22;11197;53.110;8.468;2023-04-16T03:23:31;8.80;99.90
22065;DHT22;11197;53.110;8.468;2023-04-16T03:25:57;8.80;99.90
22065;DHT22;11197;53.110;8.468;2023-04-16T03:28:23;8.80;99.90
22065;DHT22;11197;53.110;8.468;2023-04-16T03:30:51;8.80;99.90
22065;DHT22;11197;53.110;8.468;2023-04-16T03:33:18;8.80;99.90
22065;DHT22;11197;53.110;8.468;2023-04-16T03:35:44;8.80;99.90
22065;DHT22;11197;53.110;8.468;2023-04-16T03:38:10;8.80;99.90
22065;DHT22;11197;53.110;8.468;2023-04-16T03:40:38;8.70;99.90
22065;DHT22;11197;53.110;8.468;2023-04-16T03:43:04;8.70;99.90
22065;DHT22;11197;53.110;8.468;2023-04-16T03:45:29;8.70;99.90
22065;DHT22;11197;53.110;8.468;2023-04-16T03:47:55;8.80;99.90
22065;DHT22;11197;53.110;8.468;2023-04-16T03:50:24;8.70;99.90
22065;DHT22;11197;53.110;8.468;2023-04-16T03:52:50;8.70;99.90
22065;DHT22;11197;53.110;8.468;2023-04-16T03:55:17;8.70;99.90
22065;DHT22;11197;53.110;8.468;2023-04-16T03:57:44;8.70;99.90
22065;DHT22;11197;53.110;8.468;2023-04-16T04:00:12;8.70;99.90
22065;DHT22;11197;53.110;8.468;2023-04-16T04:02:59;8.70;99.90
22065;DHT22;11197;53.110;8.468;2023-04-16T04:05:26;8.70;99.90
22065;DHT22;11197;53.110;8.468;2023-04-16T04:07:51;8.70;99.90
22065;DHT22;11197;53.110;8.468;2023-04-16T04:10:17;8.70;99.90
22065;DHT22;11197;53.110;8.468;2023-04-16T04:12:43;8.70;99.90
22065;DHT22;11197;53.110;8.468;2023-04-16T04:15:09;8.70;99.90
22065;DHT22;11197;53.110;8.468;2023-04-16T04:17:36;8.70;99.90
22065;DHT22;11197;53.110;8.468;2023-04-16T04:20:02;8.70;99.90
22065;DHT22;11197;53.110;8.468;2023-04-16T04:22:30;8.70;99.90
22065;DHT22;11197;53.110;8.468;2023-04-16T04:24:56;8.70;99.90
22065;DHT22;11197;53.110;8.468;2023-04-16T04:27:22;8.70;99.90
22065;DHT22;11197;53.110;8.468;2023-04-16T04:29:48;8.70;99.90
22065;DHT22;11197;53.110;8.468;2023-04-16T04:32:13;8.70;99.90
22065;DHT22;11197;53.110;8.468;2023-04-16T04:34:39;8.70;99.90
22065;DHT22;11197;53.110;8.468;2023-04-16T04:37:11;8.70;99.90
22065;DHT22;11197;53.110;8.468;2023-04-16T04:39:37;8.60;99.90
22065;DHT22;11197;53.110;8.468;2023-04-16T04:42:03;8.60;99.90
22065;DHT22;11197;53.110;8.468;2023-04-16T04:44:29;8.60;99.90
22065;DHT22;11197;53.110;8.468;2023-04-16T04:46:55;8.60;99.90
22065;DHT22;11197;53.110;8.468;2023-04-16T04:49:21;8.60;99.90
22065;DHT22;11197;53.110;8.468;2023-04-16T04:51:47;8.60;99.90
22065;DHT22;11197;53.110;8.468;2023-04-16T04:54:13;8.60;99.90
22065;DHT22;11197;53.110;8.468;2023-04-16T04:56:41;8.60;99.90
22065;DHT22;11197;53.110;8.468;2023-04-16T04:59:10;8.60;99.90
22065;DHT22;11197;53.110;8.468;2023-04-16T05:01:37;8.60;99.90
22065;DHT22;11197;53.110;8.468;2023-04-16T05:04:03;8.60;99.90
22065;DHT22;11197;53.110;8.468;2023-04-16T05:06:29;8.60;99.90
22065;DHT22;11197;53.110;8.468;2023-04-16T05:08:55;8.60;99.90
22065;DHT22;11197;53.110;8.468;2023-04-16T05:11:21;8.60;99.90
22065;DHT22;11197;53.110;8.468;2023-04-16T05:13:47;8.60;99.90
22065;DHT22;11197;53.110;8.468;2023-04-16T05:16:13;8.60;99.90
22065;DHT22;11197;53.110;8.468;2023-04-16T05:18:39;8.60;99.90
22065;DHT22;11197;53.110;8.468;2023-04-16T05:21:04;8.60;99.90
22065;DHT22;11197;53.110;8.468;2023-04-16T05:23:30;8.60;99.90
22065;DHT22;11197;53.110;8.468;2023-04-16T05:25:56;8.60;99.90
22065;DHT22;11197;53.110;8.468;2023-04-16T05:28:22;8.60;99.90
22065;DHT22;11197;53.110;8.468;2023-04-16T05:30:48;8.60;99.90
22065;DHT22;11197;53.110;8.468;2023-04-16T05:33:14;8.60;99.90
22065;DHT22;11197;53.110;8.468;2023-04-16T05:35:39;8.60;99.90
22065;DHT22;11197;53.110;8.468;2023-04-16T05:38:05;8.70;99.90
22065;DHT22;11197;53.110;8.468;2023-04-16T05:40:31;8.60;99.90
22065;DHT22;11197;53.110;8.468;2023-04-16T05:42:57;8.60;99.90
22065;DHT22;11197;53.110;8.468;2023-04-16T05:45:23;8.70;99.90
22065;DHT22;11197;53.110;8.468;2023-04-16T05:47:48;8.70;99.90
22065;DHT22;11197;53.110;8.468;2023-04-16T05:50:14;8.70;99.90
22065;DHT22;11197;53.110;8.468;2023-04-16T05:52:40;8.70;99.90
22065;DHT22;11197;53.110;8.468;2023-04-16T05:55:06;8.70;99.90
22065;DHT22;11197;53.110;8.468;2023-04-16T05:57:32;8.70;99.90
22065;DHT22;11197;53.110;8.468;2023-04-16T05:59:58;8.70;99.90
22065;DHT22;11197;53.110;8.468;2023-04-16T06:02:24;8.70;99.90
22065;DHT22;11197;53.110;8.468;2023-04-16T06:04:50;8.70;99.90
22065;DHT22;11197;53.110;8.468;2023-04-16T06:07:16;8.70;99.90
22065;DHT22;11197;53.110;8.468;2023-04-16T06:09:43;8.70;99.90
22065;DHT22;11197;53.110;8.468;2023-04-16T06:12:09;8.70;99.90
22065;DHT22;11197;53.110;8.468;2023-04-16T06:14:35;8.70;99.90
22065;DHT22;11197;53.110;8.468;2023-04-16T06:17:01;8.80;99.90
22065;DHT22;11197;53.110;8.468;2023-04-16T06:19:27;8.80;99.90
22065;DHT22;11197;53.110;8.468;2023-04-16T06:21:53;8.80;99.90
22065;DHT22;11197;53.110;8.468;2023-04-16T06:24:18;8.80;99.90
22065;DHT22;11197;53.110;8.468;2023-04-16T06:26:44;8.90;99.90
22065;DHT22;11197;53.110;8.468;2023-04-16T06:29:10;8.80;99.90
22065;DHT22;11197;53.110;8.468;2023-04-16T06:31:36;8.90;99.90
22065;DHT22;11197;53.110;8.468;2023-04-16T06:34:02;8.90;99.90
22065;DHT22;11197;53.110;8.468;2023-04-16T06:36:28;8.90;99.90
22065;DHT22;11197;53.110;8.468;2023-04-16T06:38:54;9.00;99.90
22065;DHT22;11197;53.110;8.468;2023-04-16T06:41:20;9.00;99.90
22065;DHT22;11197;53.110;8.468;2023-04-16T06:43:47;9.00;99.90
22065;DHT22;11197;53.110;8.468;2023-04-16T06:46:13;9.00;99.90
22065;DHT22;11197;53.110;8.468;2023-04-16T06:48:39;9.10;99.90
22065;DHT22;11197;53.110;8.468;2023-04-16T06:51:05;9.10;99.90
22065;DHT22;11197;53.110;8.468;2023-04-16T06:53:31;9.10;99.90
22065;DHT22;11197;53.110;8.468;2023-04-16T06:55:57;9.10;99.90
22065;DHT22;11197;53.110;8.468;2023-04-16T06:58:23;9.20;99.90
22065;DHT22;11197;53.110;8.468;2023-04-16T07:00:49;9.20;99.90
22065;DHT22;11197;53.110;8.468;2023-04-16T07:03:15;9.20;99.90
22065;DHT22;11197;53.110;8.468;2023-04-16T07:05:41;9.20;99.90
22065;DHT22;11197;53.110;8.468;2023-04-16T07:08:06;9.30;99.90
22065;DHT22;11197;53.110;8.468;2023-04-16T07:10:32;9.30;99.90
22065;DHT22;11197;53.110;8.468;2023-04-16T07:12:58;9.30;99.90
22065;DHT22;11197;53.110;8.468;2023-04-16T07:15:26;9.30;99.90
22065;DHT22;11197;53.110;8.468;2023-04-16T07:17:52;9.30;99.90
22065;DHT22;11197;53.110;8.468;2023-04-16T07:20:18;9.40;99.90
22065;DHT22;11197;53.110;8.468;2023-04-16T07:22:44;9.40;99.90
22065;DHT22;11197;53.110;8.468;2023-04-16T07:25:10;9.40;99.90
22065;DHT22;11197;53.110;8.468;2023-04-16T07:27:35;9.40;99.90
22065;DHT22;11197;53.110;8.468;2023-04-16T07:30:01;9.40;99.90
22065;DHT22;11197;53.110;8.468;2023-04-16T07:32:27;9.50;99.90
22065;DHT22;11197;53.110;8.468;2023-04-16T07:34:53;9.50;99.90
22065;DHT22;11197;53.110;8.468;2023-04-16T07:37:20;9.50;99.90
22065;DHT22;11197;53.110;8.468;2023-04-16T07:39:45;9.50;99.90
22065;DHT22;11197;53.110;8.468;2023-04-16T07:42:11;9.60;99.90
22065;DHT22;11197;53.110;8.468;2023-04-16T07:44:38;9.60;99.90
22065;DHT22;11197;53.110;8.468;2023-04-16T07:47:03;9.60;99.90
22065;DHT22;11197;53.110;8.468;2023-04-16T07:49:29;9.60;99.90
22065;DHT22;11197;53.110;8.468;2023-04-16T07:51:56;9.70;99.90
22065;DHT22;11197;53.110;8.468;2023-04-16T07:54:21;9.60;99.90
22065;DHT22;11197;53.110;8.468;2023-04-16T07:56:47;9.70;99.90
22065;DHT22;11197;53.110;8.468;2023-04-16T07:59:13;9.70;99.90
22065;DHT22;11197;53.110;8.468;2023-04-16T08:01:39;9.70;99.90
22065;DHT22;11197;53.110;8.468;2023-04-16T08:04:05;9.70;99.90
22065;DHT22;11197;53.110;8.468;2023-04-16T08:06:31;9.80;99.90
22065;DHT22;11197;53.110;8.468;2023-04-16T08:08:56;9.80;99.90
22065;DHT22;11197;53.110;8.468;2023-04-16T08:11:22;9.80;99.90
22065;DHT22;11197;53.110;8.468;2023-04-16T08:13:49;9.90;99.90
22065;DHT22;11197;53.110;8.468;2023-04-16T08:16:14;9.90;99.90
22065;DHT22;11197;53.110;8.468;2023-04-16T08:18:41;10.00;99.90
22065;DHT22;11197;53.110;8.468;2023-04-16T08:21:07;10.00;99.90
22065;DHT22;11197;53.110;8.468;2023-04-16T08:23:33;10.00;99.90
22065;DHT22;11197;53.110;8.468;2023-04-16T08:26:00;10.00;99.90
22065;DHT22;11197;53.110;8.468;2023-04-16T08:28:26;10.00;99.90
22065;DHT22;11197;53.110;8.468;2023-04-16T08:30:55;10.00;99.90
22065;DHT22;11197;53.110;8.468;2023-04-16T08:33:21;10.10;99.90
22065;DHT22;11197;53.110;8.468;2023-04-16T08:35:47;10.10;99.90
22065;DHT22;11197;53.110;8.468;2023-04-16T08:38:13;10.20;99.90
22065;DHT22;11197;53.110;8.468;2023-04-16T08:40:40;10.20;99.90
22065;DHT22;11197;53.110;8.468;2023-04-16T08:43:11;10.20;99.90
22065;DHT22;11197;53.110;8.468;2023-04-16T08:45:40;10.30;99.90
22065;DHT22;11197;53.110;8.468;2023-04-16T08:48:10;10.30;99.90
22065;DHT22;11197;53.110;8.468;2023-04-16T08:50:36;10.30;99.90
22065;DHT22;11197;53.110;8.468;2023-04-16T08:53:04;10.30;99.90
22065;DHT22;11197;53.110;8.468;2023-04-16T08:55:38;10.30;99.90
22065;DHT22;11197;53.110;8.468;2023-04-16T08:58:17;10.40;99.90
22065;DHT22;11197;53.110;8.468;2023-04-16T09:00:43;10.40;99.90
22065;DHT22;11197;53.110;8.468;2023-04-16T09:03:11;10.40;99.90
22065;DHT22;11197;53.110;8.468;2023-04-16T09:05:38;10.50;99.90
22065;DHT22;11197;53.110;8.468;2023-04-16T09:08:04;10.50;99.90
22065;DHT22;11197;53.110;8.468;2023-04-16T09:10:31;10.50;99.90
22065;DHT22;11197;53.110;8.468;2023-04-16T09:12:57;10.50;99.90
22065;DHT22;11197;53.110;8.468;2023-04-16T09:15:24;10.60;99.90
22065;DHT22;11197;53.110;8.468;2023-04-16T09:17:51;10.60;99.90
22065;DHT22;11197;53.110;8.468;2023-04-16T09:20:17;10.60;99.90
22065;DHT22;11197;53.110;8.468;2023-04-16T09:22:44;10.70;99.90
22065;DHT22;11197;53.110;8.468;2023-04-16T09:25:11;10.70;99.90
22065;DHT22;11197;53.110;8.468;2023-04-16T09:27:37;10.70;99.90
22065;DHT22;11197;53.110;8.468;2023-04-16T09:30:30;10.80;99.90
22065;DHT22;11197;53.110;8.468;2023-04-16T09:33:19;10.80;99.90
22065;DHT22;11197;53.110;8.468;2023-04-16T09:35:49;10.80;99.90
22065;DHT22;11197;53.110;8.468;2023-04-16T09:38:16;10.80;99.90
22065;DHT22;11197;53.110;8.468;2023-04-16T09:40:42;10.80;99.90
22065;DHT22;11197;53.110;8.468;2023-04-16T09:43:13;10.90;99.90
22065;DHT22;11197;53.110;8.468;2023-04-16T09:48:15;10.90;99.90
22065;DHT22;11197;53.110;8.468;2023-04-16T09:50:49;10.90;99.90
22065;DHT22;11197;53.110;8.468;2023-04-16T09:53:26;11.00;99.90
22065;DHT22;11197;53.110;8.468;2023-04-16T09:55:59;11.00;99.90
22065;DHT22;11197;53.110;8.468;2023-04-16T09:58:25;11.00;99.90
22065;DHT22;11197;53.110;8.468;2023-04-16T10:01:05;11.10;99.90
22065;DHT22;11197;53.110;8.468;2023-04-16T10:03:33;11.10;99.90
22065;DHT22;11197;53.110;8.468;2023-04-16T10:08:45;11.20;99.90
22065;DHT22;11197;53.110;8.468;2023-04-16T10:11:11;11.20;99.90
22065;DHT22;11197;53.110;8.468;2023-04-16T10:13:37;11.20;99.90
22065;DHT22;11197;53.110;8.468;2023-04-16T10:16:03;11.30;99.90
22065;DHT22;11197;53.110;8.468;2023-04-16T10:18:30;11.30;99.90
22065;DHT22;11197;53.110;8.468;2023-04-16T10:20:56;11.30;99.90
22065;DHT22;11197;53.110;8.468;2023-04-16T10:23:22;11.40;99.90
22065;DHT22;11197;53.110;8.468;2023-04-16T10:25:49;11.40;99.90
22065;DHT22;11197;53.110;8.468;2023-04-16T10:28:15;11.40;99.90
22065;DHT22;11197;53.110;8.468;2023-04-16T10:30:47;11.40;99.90
22065;DHT22;11197;53.110;8.468;2023-04-16T10:33:26;11.50;99.90
22065;DHT22;11197;53.110;8.468;2023-04-16T10:36:12;11.60;99.90
22065;DHT22;11197;53.110;8.468;2023-04-16T10:38:43;11.60;99.90
22065;DHT22;11197;53.110;8.468;2023-04-16T10:41:09;11.60;99.90
22065;DHT22;11197;53.110;8.468;2023-04-16T10:43:46;11.70;99.90
22065;DHT22;11197;53.110;8.468;2023-04-16T10:46:25;11.70;99.90
22065;DHT22;11197;53.110;8.468;2023-04-16T10:49:01;11.70;99.90
22065;DHT22;11197;53.110;8.468;2023-04-16T10:51:35;11.70;99.90
22065;DHT22;11197;53.110;8.468;2023-04-16T10:54:20;11.80;99.90
22065;DHT22;11197;53.110;8.468;2023-04-16T10:56:46;11.80;99.90
22065;DHT22;11197;53.110;8.468;2023-04-16T10:59:16;11.80;99.90
22065;DHT22;11197;53.110;8.468;2023-04-16T11:01:48;11.90;99.90
22065;DHT22;11197;53.110;8.468;2023-04-16T11:12:16;12.00;99.90
22065;DHT22;11197;53.110;8.468;2023-04-16T11:14:47;12.10;99.90
22065;DHT22;11197;53.110;8.468;2023-04-16T11:17:18;12.20;99.90
22065;DHT22;11197;53.110;8.468;2023-04-16T11:19:44;12.20;99.90
22065;DHT22;11197;53.110;8.468;2023-04-16T11:22:15;12.20;99.90
22065;DHT22;11197;53.110;8.468;2023-04-16T11:24:45;12.30;99.90
22065;DHT22;11197;53.110;8.468;2023-04-16T11:27:16;12.40;99.90
22065;DHT22;11197;53.110;8.468;2023-04-16T11:29:42;12.40;99.90
22065;DHT22;11197;53.110;8.468;2023-04-16T11:32:08;12.50;99.90
22065;DHT22;11197;53.110;8.468;2023-04-16T11:34:34;12.50;99.90
22065;DHT22;11197;53.110;8.468;2023-04-16T11:37:07;12.50;99.90
22065;DHT22;11197;53.110;8.468;2023-04-16T11:39:33;12.60;99.90
22065;DHT22;11197;53.110;8.468;2023-04-16T11:42:21;12.60;99.90
22065;DHT22;11197;53.110;8.468;2023-04-16T11:44:54;12.60;99.90
22065;DHT22;11197;53.110;8.468;2023-04-16T11:47:24;12.70;99.90
22065;DHT22;11197;53.110;8.468;2023-04-16T11:49:50;12.70;99.90
22065;DHT22;11197;53.110;8.468;2023-04-16T11:52:32;12.70;99.90
22065;DHT22;11197;53.110;8.468;2023-04-16T11:54:58;12.70;99.90
22065;DHT22;11197;53.110;8.468;2023-04-16T11:57:27;12.70;99.90
22065;DHT22;11197;53.110;8.468;2023-04-16T11:59:54;12.80;99.90
22065;DHT22;11197;53.110;8.468;2023-04-16T12:02:34;12.80;99.90
22065;DHT22;11197;53.110;8.468;2023-04-16T12:05:05;12.80;99.90
22065;DHT22;11197;53.110;8.468;2023-04-16T12:07:42;12.80;99.90
22065;DHT22;11197;53.110;8.468;2023-04-16T12:10:09;12.80;99.90
22065;DHT22;11197;53.110;8.468;2023-04-16T12:12:35;12.80;99.90
22065;DHT22;11197;53.110;8.468;2023-04-16T12:15:02;12.80;99.90
22065;DHT22;11197;53.110;8.468;2023-04-16T12:17:32;12.90;99.90
22065;DHT22;11197;53.110;8.468;2023-04-16T12:20:00;12.90;99.90
22065;DHT22;11197;53.110;8.468;2023-04-16T12:22:33;12.90;99.90
22065;DHT22;11197;53.110;8.468;2023-04-16T12:25:20;12.90;99.90
22065;DHT22;11197;53.110;8.468;2023-04-16T12:27:51;12.90;99.90
22065;DHT22;11197;53.110;8.468;2023-04-16T12:30:19;12.90;99.90
22065;DHT22;11197;53.110;8.468;2023-04-16T12:32:47;13.00;99.90
22065;DHT22;11197;53.110;8.468;2023-04-16T12:35:13;13.00;99.90
22065;DHT22;11197;53.110;8.468;2023-04-16T12:37:53;13.00;99.90
22065;DHT22;11197;53.110;8.468;2023-04-16T12:40:19;13.00;99.90
22065;DHT22;11197;53.110;8.468;2023-04-16T12:42:45;13.00;99.90
22065;DHT22;11197;53.110;8.468;2023-04-16T12:45:11;13.00;99.90
22065;DHT22;11197;53.110;8.468;2023-04-16T12:47:37;13.10;99.90
22065;DHT22;11197;53.110;8.468;2023-04-16T12:50:03;13.10;99.90
22065;DHT22;11197;53.110;8.468;2023-04-16T12:52:29;13.10;99.90
22065;DHT22;11197;53.110;8.468;2023-04-16T12:54:55;13.10;99.90
22065;DHT22;11197;53.110;8.468;2023-04-16T12:57:21;13.20;99.90
22065;DHT22;11197;53.110;8.468;2023-04-16T12:59:54;13.20;99.90
22065;DHT22;11197;53.110;8.468;2023-04-16T13:02:20;13.20;99.90
22065;DHT22;11197;53.110;8.468;2023-04-16T13:04:47;13.20;99.90
22065;DHT22;11197;53.110;8.468;2023-04-16T13:07:13;13.30;99.90
22065;DHT22;11197;53.110;8.468;2023-04-16T13:09:39;13.20;99.90
22065;DHT22;11197;53.110;8.468;2023-04-16T13:12:05;13.30;99.90
22065;DHT22;11197;53.110;8.468;2023-04-16T13:14:31;13.30;99.90
22065;DHT22;11197;53.110;8.468;2023-04-16T13:16:57;13.30;99.90
22065;DHT22;11197;53.110;8.468;2023-04-16T13:19:23;13.40;99.90
22065;DHT22;11197;53.110;8.468;2023-04-16T13:21:49;13.50;99.90
22065;DHT22;11197;53.110;8.468;2023-04-16T13:24:15;13.50;99.90
22065;DHT22;11197;53.110;8.468;2023-04-16T13:26:40;13.50;99.90
22065;DHT22;11197;53.110;8.468;2023-04-16T13:29:08;13.50;99.90
22065;DHT22;11197;53.110;8.468;2023-04-16T13:31:34;13.60;99.90
22065;DHT22;11197;53.110;8.468;2023-04-16T13:34:00;13.60;99.90
22065;DHT22;11197;53.110;8.468;2023-04-16T13:36:26;13.60;99.90
22065;DHT22;11197;53.110;8.468;2023-04-16T13:38:52;13.60;99.90
22065;DHT22;11197;53.110;8.468;2023-04-16T13:41:18;13.60;99.90
22065;DHT22;11197;53.110;8.468;2023-04-16T13:43:44;13.60;99.90
22065;DHT22;11197;53.110;8.468;2023-04-16T13:46:09;13.60;99.90
22065;DHT22;11197;53.110;8.468;2023-04-16T13:48:36;13.70;99.90
22065;DHT22;11197;53.110;8.468;2023-04-16T13:51:02;13.70;99.90
22065;DHT22;11197;53.110;8.468;2023-04-16T13:53:28;13.60;99.90
22065;DHT22;11197;53.110;8.468;2023-04-16T13:55:54;13.60;99.90
22065;DHT22;11197;53.110;8.468;2023-04-16T13:58:20;13.60;99.90
22065;DHT22;11197;53.110;8.468;2023-04-16T14:00:46;13.60;99.90
22065;DHT22;11197;53.110;8.468;2023-04-16T14:03:11;13.60;99.90
22065;DHT22;11197;53.110;8.468;2023-04-16T14:05:37;13.60;99.90
22065;DHT22;11197;53.110;8.468;2023-04-16T14:08:03;13.60;99.90
22065;DHT22;11197;53.110;8.468;2023-04-16T14:10:30;13.60;99.90
22065;DHT22;11197;53.110;8.468;2023-04-16T14:12:56;13.70;99.90
22065;DHT22;11197;53.110;8.468;2023-04-16T14:15:22;13.70;99.90
22065;DHT22;11197;53.110;8.468;2023-04-16T14:17:51;13.70;99.90
22065;DHT22;11197;53.110;8.468;2023-04-16T14:20:17;13.70;99.90
22065;DHT22;11197;53.110;8.468;2023-04-16T14:22:43;13.70;99.90
22065;DHT22;11197;53.110;8.468;2023-04-16T14:25:11;13.70;99.90
22065;DHT22;11197;53.110;8.468;2023-04-16T14:27:37;13.80;99.90
22065;DHT22;11197;53.110;8.468;2023-04-16T14:30:04;13.80;99.90
22065;DHT22;11197;53.110;8.468;2023-04-16T14:32:30;13.80;99.90
22065;DHT22;11197;53.110;8.468;2023-04-16T14:34:56;13.80;99.90
22065;DHT22;11197;53.110;8.468;2023-04-16T14:37:22;13.80;99.90
22065;DHT22;11197;53.110;8.468;2023-04-16T14:39:49;13.80;99.90
22065;DHT22;11197;53.110;8.468;2023-04-16T14:42:15;13.70;99.90
22065;DHT22;11197;53.110;8.468;2023-04-16T14:44:41;13.80;99.90
22065;DHT22;11197;53.110;8.468;2023-04-16T14:47:07;13.80;99.90
22065;DHT22;11197;53.110;8.468;2023-04-16T14:49:33;13.80;99.90
22065;DHT22;11197;53.110;8.468;2023-04-16T14:52:00;13.80;99.90
22065;DHT22;11197;53.110;8.468;2023-04-16T14:54:31;13.80;99.90
22065;DHT22;11197;53.110;8.468;2023-04-16T14:56:58;13.80;99.90
22065;DHT22;11197;53.110;8.468;2023-04-16T14:59:24;13.80;99.90
22065;DHT22;11197;53.110;8.468;2023-04-16T15:01:50;13.90;99.90
22065;DHT22;11197;53.110;8.468;2023-04-16T15:04:16;13.90;99.90
22065;DHT22;11197;53.110;8.468;2023-04-16T15:06:42;13.80;99.90
22065;DHT22;11197;53.110;8.468;2023-04-16T15:09:08;13.80;99.90
22065;DHT22;11197;53.110;8.468;2023-04-16T15:11:37;13.80;99.90
22065;DHT22;11197;53.110;8.468;2023-04-16T15:14:04;13.80;99.90
22065;DHT22;11197;53.110;8.468;2023-04-16T15:16:31;13.80;99.90
22065;DHT22;11197;53.110;8.468;2023-04-16T15:18:58;13.80;99.90
22065;DHT22;11197;53.110;8.468;2023-04-16T15:21:25;13.80;99.90
22065;DHT22;11197;53.110;8.468;2023-04-16T15:23:52;13.80;99.90
22065;DHT22;11197;53.110;8.468;2023-04-16T15:26:18;13.80;99.90
22065;DHT22;11197;53.110;8.468;2023-04-16T15:28:48;13.80;99.90
22065;DHT22;11197;53.110;8.468;2023-04-16T15:31:18;13.90;99.90
22065;DHT22;11197;53.110;8.468;2023-04-16T15:33:50;13.90;99.90
22065;DHT22;11197;53.110;8.468;2023-04-16T15:36:20;13.80;99.90
22065;DHT22;11197;53.110;8.468;2023-04-16T15:38:49;13.90;99.90
22065;DHT22;11197;53.110;8.468;2023-04-16T15:41:15;13.80;99.90
22065;DHT22;11197;53.110;8.468;2023-04-16T15:43:41;13.80;99.90
22065;DHT22;11197;53.110;8.468;2023-04-16T15:46:08;13.80;99.90
22065;DHT22;11197;53.110;8.468;2023-04-16T15:48:35;13.70;99.90
22065;DHT22;11197;53.110;8.468;2023-04-16T15:51:02;13.70;99.90
22065;DHT22;11197;53.110;8.468;2023-04-16T15:53:30;13.70;99.90
22065;DHT22;11197;53.110;8.468;2023-04-16T15:55:56;13.70;99.90